sensor_id;sensor_type;location;lat;lon;timestamp;pressure;altitude;pressure_sealevel;temperature;humidity
42511;BME280;28141;51.120;17.114;2022-08-14T00:02:36;101441.13;;;31.03;38.56
42511;BME280;28141;51.120;17.114;2022-08-14T00:05:40;101439.45;;;31.02;38.03
42511;BME280;28141;51.120;17.114;2022-08-14T00:08:44;101444.20;;;31.01;38.22
42511;BME280;28141;51.120;17.114;2022-08-14T00:11:47;101429.95;;;31.03;38.74
42511;BME280;28141;51.120;17.114;2022-08-14T00:15:23;101429.62;;;30.99;38.32
42511;BME280;28141;51.120;17.114;2022-08-14T00:18:27;101415.63;;;30.99;38.61
42511;BME280;28141;51.120;17.114;2022-08-14T00:21:31;101408.34;;;30.98;37.87
42511;BME280;28141;51.120;17.114;2022-08-14T00:24:34;101415.04;;;30.97;38.32
42511;BME280;28141;51.120;17.114;2022-08-14T00:27:38;101406.91;;;30.96;38.47
42511;BME280;28141;51.120;17.114;2022-08-14T00:30:42;101392.09;;;30.95;38.40
42511;BME280;28141;51.120;17.114;2022-08-14T00:33:46;101397.67;;;30.95;38.15
42511;BME280;28141;51.120;17.114;2022-08-14T00:36:50;101406.32;;;30.94;38.00
42511;BME280;28141;51.120;17.114;2022-08-14T00:39:53;101403.54;;;30.94;38.60
42511;BME280;28141;51.120;17.114;2022-08-14T00:42:57;101401.58;;;30.94;38.43
42511;BME280;28141;51.120;17.114;2022-08-14T00:46:26;101402.13;;;30.91;38.54
42511;BME280;28141;51.120;17.114;2022-08-14T00:49:30;101398.76;;;30.89;38.15
42511;BME280;28141;51.120;17.114;2022-08-14T00:52:35;101390.95;;;30.91;38.94
42511;BME280;28141;51.120;17.114;2022-08-14T00:55:38;101384.50;;;30.91;38.55
42511;BME280;28141;51.120;17.114;2022-08-14T00:58:44;101381.45;;;30.92;38.47
42511;BME280;28141;51.120;17.114;2022-08-14T01:01:49;101387.88;;;30.93;38.58
42511;BME280;28141;51.120;17.114;2022-08-14T01:04:56;101381.45;;;30.92;38.68
42511;BME280;28141;51.120;17.114;2022-08-14T01:08:01;101386.45;;;30.90;38.39
42511;BME280;28141;51.120;17.114;2022-08-14T01:11:05;101382.81;;;30.90;38.27
42511;BME280;28141;51.120;17.114;2022-08-14T01:14:09;101382.55;;;30.91;39.13
42511;BME280;28141;51.120;17.114;2022-08-14T01:17:39;101386.98;;;30.87;38.68
42511;BME280;28141;51.120;17.114;2022-08-14T01:20:55;101389.16;;;30.80;38.33
42511;BME280;28141;51.120;17.114;2022-08-14T01:24:10;101379.01;;;30.74;38.46
42511;BME280;28141;51.120;17.114;2022-08-14T01:27:19;101383.57;;;30.80;38.63
42511;BME280;28141;51.120;17.114;2022-08-14T01:30:23;101377.41;;;30.83;38.88
42511;BME280;28141;51.120;17.114;2022-08-14T01:34:00;101383.02;;;30.83;38.80
42511;BME280;28141;51.120;17.114;2022-08-14T01:37:04;101376.31;;;30.84;39.33
42511;BME280;28141;51.120;17.114;2022-08-14T01:40:10;101375.46;;;30.83;38.33
42511;BME280;28141;51.120;17.114;2022-08-14T01:43:14;101368.77;;;30.84;38.83
42511;BME280;28141;51.120;17.114;2022-08-14T01:46:22;101376.31;;;30.84;38.88
42511;BME280;28141;51.120;17.114;2022-08-14T01:49:25;101378.27;;;30.83;38.46
42511;BME280;28141;51.120;17.114;2022-08-14T01:52:34;101383.02;;;30.83;39.04
42511;BME280;28141;51.120;17.114;2022-08-14T01:55:38;101376.31;;;30.84;38.29
42511;BME280;28141;51.120;17.114;2022-08-14T01:59:19;101366.53;;;30.81;38.81
42511;BME280;28141;51.120;17.114;2022-08-14T02:02:22;101373.81;;;30.82;38.95
42511;BME280;28141;51.120;17.114;2022-08-14T02:05:25;101377.41;;;30.83;39.00
42511;BME280;28141;51.120;17.114;2022-08-14T02:08:33;101372.37;;;30.80;39.21
42511;BME280;28141;51.120;17.114;2022-08-14T02:11:39;101371.27;;;30.81;39.27
42511;BME280;28141;51.120;17.114;2022-08-14T02:14:43;101372.12;;;30.81;38.83
42511;BME280;28141;51.120;17.114;2022-08-14T02:17:48;101365.67;;;30.81;39.02
42511;BME280;28141;51.120;17.114;2022-08-14T02:20:51;101360.63;;;30.83;38.66
42511;BME280;28141;51.120;17.114;2022-08-14T02:24:25;101362.88;;;30.81;38.84
42511;BME280;28141;51.120;17.114;2022-08-14T02:27:31;101363.98;;;30.80;38.87
42511;BME280;28141;51.120;17.114;2022-08-14T02:30:34;101354.48;;;30.81;38.49
42511;BME280;28141;51.120;17.114;2022-08-14T02:33:38;101351.95;;;30.79;39.18
42511;BME280;28141;51.120;17.114;2022-08-14T02:36:45;101348.05;;;30.80;38.63
42511;BME280;28141;51.120;17.114;2022-08-14T02:39:49;101346.10;;;30.81;38.70
42511;BME280;28141;51.120;17.114;2022-08-14T02:42:53;101345.25;;;30.80;38.26
42511;BME280;28141;51.120;17.114;2022-08-14T02:45:59;101339.34;;;30.77;39.89
42511;BME280;28141;51.120;17.114;2022-08-14T02:49:05;101336.54;;;30.77;39.06
42511;BME280;28141;51.120;17.114;2022-08-14T02:52:34;101345.46;;;30.74;39.02
42511;BME280;28141;51.120;17.114;2022-08-14T02:55:39;101339.01;;;30.73;39.33
42511;BME280;28141;51.120;17.114;2022-08-14T02:58:46;101336.48;;;30.72;38.73
42511;BME280;28141;51.120;17.114;2022-08-14T03:01:49;101333.13;;;30.70;38.62
42511;BME280;28141;51.120;17.114;2022-08-14T03:04:56;101329.48;;;30.69;39.17
42511;BME280;28141;51.120;17.114;2022-08-14T03:08:12;101326.95;;;30.68;39.01
42511;BME280;28141;51.120;17.114;2022-08-14T03:11:16;101339.48;;;30.60;39.10
42511;BME280;28141;51.120;17.114;2022-08-14T03:14:21;101333.59;;;30.62;38.87
42511;BME280;28141;51.120;17.114;2022-08-14T03:17:54;101330.25;;;30.60;39.30
42511;BME280;28141;51.120;17.114;2022-08-14T03:21:05;101324.66;;;30.60;39.00
42511;BME280;28141;51.120;17.114;2022-08-14T03:24:09;101324.07;;;30.58;39.44
42511;BME280;28141;51.120;17.114;2022-08-14T03:27:15;101324.32;;;30.56;39.14
42511;BME280;28141;51.120;17.114;2022-08-14T03:30:19;101314.74;;;30.52;39.95
42511;BME280;28141;51.120;17.114;2022-08-14T03:33:22;101324.59;;;30.55;39.14
42511;BME280;28141;51.120;17.114;2022-08-14T03:36:26;101315.36;;;30.54;39.62
42511;BME280;28141;51.120;17.114;2022-08-14T03:39:34;101312.56;;;30.54;39.50
42511;BME280;28141;51.120;17.114;2022-08-14T03:42:38;101308.08;;;30.53;39.42
42511;BME280;28141;51.120;17.114;2022-08-14T03:46:08;101304.95;;;30.49;39.48
42511;BME280;28141;51.120;17.114;2022-08-14T03:49:14;101304.66;;;30.51;39.62
42511;BME280;28141;51.120;17.114;2022-08-14T03:52:23;101310.55;;;30.49;39.46
42511;BME280;28141;51.120;17.114;2022-08-14T03:55:28;101306.05;;;30.48;39.62
42511;BME280;28141;51.120;17.114;2022-08-14T03:58:32;101312.76;;;30.47;39.26
42511;BME280;28141;51.120;17.114;2022-08-14T04:01:37;101312.49;;;30.49;40.45
42511;BME280;28141;51.120;17.114;2022-08-14T04:04:45;101306.32;;;30.47;39.95
42511;BME280;28141;51.120;17.114;2022-08-14T04:07:49;101299.88;;;30.46;39.30
42511;BME280;28141;51.120;17.114;2022-08-14T04:11:20;101302.09;;;30.44;39.65
42511;BME280;28141;51.120;17.114;2022-08-14T04:14:23;101296.50;;;30.44;40.18
42511;BME280;28141;51.120;17.114;2022-08-14T04:17:27;101303.79;;;30.45;38.87
42511;BME280;28141;51.120;17.114;2022-08-14T04:20:31;101300.73;;;30.47;39.41
42511;BME280;28141;51.120;17.114;2022-08-14T04:23:35;101300.73;;;30.47;40.16
42511;BME280;28141;51.120;17.114;2022-08-14T04:26:38;101306.32;;;30.47;39.78
42511;BME280;28141;51.120;17.114;2022-08-14T04:29:43;101303.27;;;30.48;38.91
42511;BME280;28141;51.120;17.114;2022-08-14T04:32:47;101300.21;;;30.50;40.14
42511;BME280;28141;51.120;17.114;2022-08-14T04:35:50;101309.14;;;30.52;39.18
42511;BME280;28141;51.120;17.114;2022-08-14T04:38:55;101311.71;;;30.54;38.84
42511;BME280;28141;51.120;17.114;2022-08-14T04:42:36;101311.92;;;30.47;39.66
42511;BME280;28141;51.120;17.114;2022-08-14T04:45:52;101306.84;;;30.44;39.79
42511;BME280;28141;51.120;17.114;2022-08-14T04:48:55;101301.02;;;30.50;40.16
42511;BME280;28141;51.120;17.114;2022-08-14T04:51:59;101300.01;;;30.57;39.71
42511;BME280;28141;51.120;17.114;2022-08-14T04:55:06;101296.70;;;30.60;39.40
42511;BME280;28141;51.120;17.114;2022-08-14T04:58:10;101304.52;;;30.63;39.53
42511;BME280;28141;51.120;17.114;2022-08-14T05:01:13;101299.24;;;30.66;39.09
42511;BME280;28141;51.120;17.114;2022-08-14T05:04:19;101311.60;;;30.70;39.41
42511;BME280;28141;51.120;17.114;2022-08-14T05:07:51;101296.51;;;30.71;39.30
42511;BME280;28141;51.120;17.114;2022-08-14T05:10:57;101287.28;;;30.71;39.95
42511;BME280;28141;51.120;17.114;2022-08-14T05:14:03;101288.41;;;30.75;39.58
42511;BME280;28141;51.120;17.114;2022-08-14T05:17:07;101292.37;;;30.79;39.49
42511;BME280;28141;51.120;17.114;2022-08-14T05:20:10;101281.77;;;30.81;38.76
42511;BME280;28141;51.120;17.114;2022-08-14T05:23:17;101285.12;;;30.83;39.12
42511;BME280;28141;51.120;17.114;2022-08-14T05:26:21;101291.28;;;30.85;39.18
42511;BME280;28141;51.120;17.114;2022-08-14T05:29:25;101287.11;;;30.88;39.48
42511;BME280;28141;51.120;17.114;2022-08-14T05:32:28;101281.26;;;30.89;39.54
42511;BME280;28141;51.120;17.114;2022-08-14T05:35:31;101282.41;;;30.93;38.99
42511;BME280;28141;51.120;17.114;2022-08-14T05:39:01;101278.48;;;30.94;38.96
42511;BME280;28141;51.120;17.114;2022-08-14T05:42:06;101279.90;;;30.97;39.56
42511;BME280;28141;51.120;17.114;2022-08-14T05:45:09;101279.95;;;31.02;38.41
42511;BME280;28141;51.120;17.114;2022-08-14T05:48:16;101280.23;;;31.05;38.58
42511;BME280;28141;51.120;17.114;2022-08-14T05:51:21;101282.77;;;31.07;39.22
42511;BME280;28141;51.120;17.114;2022-08-14T05:54:25;101270.23;;;31.09;38.87
42511;BME280;28141;51.120;17.114;2022-08-14T05:57:28;101274.45;;;31.12;38.98
42511;BME280;28141;51.120;17.114;2022-08-14T06:00:37;101274.18;;;31.13;38.75
42511;BME280;28141;51.120;17.114;2022-08-14T06:03:41;101281.73;;;31.13;39.03
42511;BME280;28141;51.120;17.114;2022-08-14T06:07:11;101272.78;;;31.16;38.60
42511;BME280;28141;51.120;17.114;2022-08-14T06:10:15;101277.00;;;31.18;38.45
42511;BME280;28141;51.120;17.114;2022-08-14T06:13:19;101261.37;;;31.23;38.48
42511;BME280;28141;51.120;17.114;2022-08-14T06:16:23;101258.84;;;31.26;38.33
42511;BME280;28141;51.120;17.114;2022-08-14T06:19:26;101259.99;;;31.30;38.30
42511;BME280;28141;51.120;17.114;2022-08-14T06:22:29;101255.82;;;31.33;38.43
42511;BME280;28141;51.120;17.114;2022-08-14T06:25:33;101254.43;;;31.35;38.44
42511;BME280;28141;51.120;17.114;2022-08-14T06:28:36;101248.26;;;31.38;38.33
42511;BME280;28141;51.120;17.114;2022-08-14T06:31:40;101252.49;;;31.41;38.21
42511;BME280;28141;51.120;17.114;2022-08-14T06:34:44;101256.71;;;31.43;38.40
42511;BME280;28141;51.120;17.114;2022-08-14T06:37:49;101250.84;;;31.45;37.80
42511;BME280;28141;51.120;17.114;2022-08-14T06:41:19;101255.87;;;31.48;38.11
42511;BME280;28141;51.120;17.114;2022-08-14T06:44:26;101261.77;;;31.51;37.92
42511;BME280;28141;51.120;17.114;2022-08-14T06:47:35;101239.94;;;31.53;37.71
42511;BME280;28141;51.120;17.114;2022-08-14T06:50:39;101246.96;;;31.56;38.17
42511;BME280;28141;51.120;17.114;2022-08-14T06:53:43;101251.99;;;31.59;37.95
42511;BME280;28141;51.120;17.114;2022-08-14T06:56:46;101249.77;;;31.61;37.96
42511;BME280;28141;51.120;17.114;2022-08-14T06:59:50;101252.06;;;31.64;38.06
42511;BME280;28141;51.120;17.114;2022-08-14T07:02:54;101245.08;;;31.67;38.02
42511;BME280;28141;51.120;17.114;2022-08-14T07:06:35;101251.99;;;31.59;37.97
42511;BME280;28141;51.120;17.114;2022-08-14T07:09:39;101249.83;;;31.66;37.96
42511;BME280;28141;51.120;17.114;2022-08-14T07:12:42;101248.98;;;31.71;37.48
42511;BME280;28141;51.120;17.114;2022-08-14T07:15:47;101245.38;;;31.75;37.93
42511;BME280;28141;51.120;17.114;2022-08-14T07:18:52;101247.05;;;31.81;37.95
42511;BME280;28141;51.120;17.114;2022-08-14T07:21:56;101253.81;;;31.85;37.71
42511;BME280;28141;51.120;17.114;2022-08-14T07:24:59;101240.95;;;31.89;38.13
42511;BME280;28141;51.120;17.114;2022-08-14T07:28:09;101244.29;;;31.91;38.36
42511;BME280;28141;51.120;17.114;2022-08-14T07:31:13;101242.05;;;31.93;38.12
42511;BME280;28141;51.120;17.114;2022-08-14T07:34:46;101240.12;;;31.99;37.95
42511;BME280;28141;51.120;17.114;2022-08-14T07:37:49;101236.19;;;32.05;37.57
42511;BME280;28141;51.120;17.114;2022-08-14T07:40:53;101233.15;;;32.12;37.31
42511;BME280;28141;51.120;17.114;2022-08-14T07:43:56;101226.95;;;32.15;38.45
42511;BME280;28141;51.120;17.114;2022-08-14T07:47:00;101228.70;;;32.21;38.05
42511;BME280;28141;51.120;17.114;2022-08-14T07:50:11;101220.84;;;32.28;38.40
42511;BME280;28141;51.120;17.114;2022-08-14T07:53:17;101219.71;;;32.34;39.67
42511;BME280;28141;51.120;17.114;2022-08-14T07:56:21;101222.52;;;32.39;38.53
42511;BME280;28141;51.120;17.114;2022-08-14T07:59:25;101221.13;;;32.42;37.99
42511;BME280;28141;51.120;17.114;2022-08-14T08:02:30;101219.43;;;32.46;37.29
42511;BME280;28141;51.120;17.114;2022-08-14T08:05:34;101218.60;;;32.50;37.22
42511;BME280;28141;51.120;17.114;2022-08-14T08:09:07;101214.12;;;32.54;36.90
42511;BME280;28141;51.120;17.114;2022-08-14T08:12:12;101211.30;;;32.59;37.24
42511;BME280;28141;51.120;17.114;2022-08-14T08:15:18;101209.62;;;32.63;36.16
42511;BME280;28141;51.120;17.114;2022-08-14T08:18:23;101202.30;;;32.68;35.79
42511;BME280;28141;51.120;17.114;2022-08-14T08:21:26;101207.38;;;32.71;36.24
42511;BME280;28141;51.120;17.114;2022-08-14T08:24:31;101207.39;;;32.76;36.54
42511;BME280;28141;51.120;17.114;2022-08-14T08:27:37;101210.73;;;32.83;35.94
42511;BME280;28141;51.120;17.114;2022-08-14T08:32:26;101206.24;;;32.87;36.17
42511;BME280;28141;51.120;17.114;2022-08-14T08:35:33;101196.13;;;32.91;36.23
42511;BME280;28141;51.120;17.114;2022-08-14T08:38:37;101190.50;;;32.96;35.75
42511;BME280;28141;51.120;17.114;2022-08-14T08:41:45;101186.82;;;33.00;35.80
42511;BME280;28141;51.120;17.114;2022-08-14T08:44:54;101186.54;;;33.02;36.34
42511;BME280;28141;51.120;17.114;2022-08-14T08:47:57;101184.57;;;33.03;36.25
42511;BME280;28141;51.120;17.114;2022-08-14T08:51:02;101184.57;;;33.08;35.70
42511;BME280;28141;51.120;17.114;2022-08-14T08:54:08;101183.13;;;33.10;36.05
42511;BME280;28141;51.120;17.114;2022-08-14T08:57:37;101177.52;;;33.10;35.68
42511;BME280;28141;51.120;17.114;2022-08-14T09:00:45;101176.72;;;33.10;35.55
42511;BME280;28141;51.120;17.114;2022-08-14T09:03:49;101171.34;;;33.13;36.13
42511;BME280;28141;51.120;17.114;2022-08-14T09:06:55;101182.02;;;33.16;35.50
42511;BME280;28141;51.120;17.114;2022-08-14T09:09:58;101176.40;;;33.16;35.55
42511;BME280;28141;51.120;17.114;2022-08-14T09:13:02;101171.91;;;33.15;35.10
42511;BME280;28141;51.120;17.114;2022-08-14T09:16:06;101170.78;;;33.16;35.54
42511;BME280;28141;51.120;17.114;2022-08-14T09:19:10;101166.01;;;33.17;35.53
42511;BME280;28141;51.120;17.114;2022-08-14T09:22:14;101162.07;;;33.18;35.46
42511;BME280;28141;51.120;17.114;2022-08-14T09:25:47;101171.90;;;33.20;35.51
42511;BME280;28141;51.120;17.114;2022-08-14T09:28:51;101164.88;;;33.23;35.64
42511;BME280;28141;51.120;17.114;2022-08-14T09:31:58;101162.34;;;33.26;35.58
42511;BME280;28141;51.120;17.114;2022-08-14T09:35:11;101154.48;;;33.28;35.36
42511;BME280;28141;51.120;17.114;2022-08-14T09:48:26;101151.11;;;33.26;35.95
42511;BME280;28141;51.120;17.114;2022-08-14T09:51:33;101152.23;;;33.30;35.52
42511;BME280;28141;51.120;17.114;2022-08-14T09:54:45;101147.14;;;33.32;35.41
42511;BME280;28141;51.120;17.114;2022-08-14T09:58:18;101149.70;;;33.29;35.36
42511;BME280;28141;51.120;17.114;2022-08-14T10:01:22;101134.55;;;33.25;35.22
42511;BME280;28141;51.120;17.114;2022-08-14T10:04:27;101143.20;;;33.33;35.27
42511;BME280;28141;51.120;17.114;2022-08-14T10:07:57;101135.62;;;33.34;35.51
42511;BME280;28141;51.120;17.114;2022-08-14T10:10:45;101139.27;;;33.34;35.63
42511;BME280;28141;51.120;17.114;2022-08-14T10:13:51;101135.05;;;33.37;35.02
42511;BME280;28141;51.120;17.114;2022-08-14T10:16:57;101141.51;;;33.38;35.69
42511;BME280;28141;51.120;17.114;2022-08-14T10:20:33;101145.44;;;33.37;35.34
42511;BME280;28141;51.120;17.114;2022-08-14T10:23:42;101148.55;;;33.35;34.92
42511;BME280;28141;51.120;17.114;2022-08-14T10:26:55;101149.11;;;33.32;35.16
42511;BME280;28141;51.120;17.114;2022-08-14T10:29:59;101149.95;;;33.32;35.52
42511;BME280;28141;51.120;17.114;2022-08-14T10:33:03;101139.27;;;33.34;35.20
42511;BME280;28141;51.120;17.114;2022-08-14T10:36:06;101140.12;;;33.35;35.66
42511;BME280;28141;51.120;17.114;2022-08-14T10:39:19;101138.15;;;33.35;35.70
42511;BME280;28141;51.120;17.114;2022-08-14T10:42:48;101148.58;;;33.30;35.71
42511;BME280;28141;51.120;17.114;2022-08-14T10:45:54;101137.03;;;33.31;35.56
42511;BME280;28141;51.120;17.114;2022-08-14T10:49:01;101129.70;;;33.41;35.47
42511;BME280;28141;51.120;17.114;2022-08-14T10:52:20;101122.97;;;33.42;35.25
42511;BME280;28141;51.120;17.114;2022-08-14T10:55:33;101128.59;;;33.42;35.35
42511;BME280;28141;51.120;17.114;2022-08-14T10:59:07;101132.24;;;33.37;35.34
42511;BME280;28141;51.120;17.114;2022-08-14T11:05:42;101122.42;;;33.34;35.23
42511;BME280;28141;51.120;17.114;2022-08-14T11:08:47;101122.42;;;33.34;35.53
42511;BME280;28141;51.120;17.114;2022-08-14T11:11:54;101133.03;;;33.43;35.48
42511;BME280;28141;51.120;17.114;2022-08-14T11:15:25;101129.11;;;33.44;35.27
42511;BME280;28141;51.120;17.114;2022-08-14T11:18:30;101133.31;;;33.46;35.29
42511;BME280;28141;51.120;17.114;2022-08-14T11:21:38;101141.73;;;33.46;35.88
42511;BME280;28141;51.120;17.114;2022-08-14T11:24:44;101136.41;;;33.45;35.28
42511;BME280;28141;51.120;17.114;2022-08-14T11:27:56;101140.89;;;33.46;34.98
42511;BME280;28141;51.120;17.114;2022-08-14T11:31:02;101146.80;;;33.44;34.90
42511;BME280;28141;51.120;17.114;2022-08-14T11:34:35;101139.81;;;33.42;35.25
42511;BME280;28141;51.120;17.114;2022-08-14T11:37:48;101131.07;;;33.43;35.34
42511;BME280;28141;51.120;17.114;2022-08-14T11:40:53;101130.23;;;33.43;35.80
42511;BME280;28141;51.120;17.114;2022-08-14T11:43:58;101127.98;;;33.45;36.35
42511;BME280;28141;51.120;17.114;2022-08-14T11:47:02;101128.59;;;33.42;35.57
42511;BME280;28141;51.120;17.114;2022-08-14T11:50:15;101112.57;;;33.42;35.59
42511;BME280;28141;51.120;17.114;2022-08-14T11:53:56;101112.59;;;33.32;35.55
42511;BME280;28141;51.120;17.114;2022-08-14T11:57:01;101111.48;;;33.33;35.63
42511;BME280;28141;51.120;17.114;2022-08-14T12:00:12;101100.52;;;33.31;35.40
42511;BME280;28141;51.120;17.114;2022-08-14T12:03:19;101092.66;;;33.33;35.62
42511;BME280;28141;51.120;17.114;2022-08-14T12:06:24;101089.56;;;33.35;35.58
42511;BME280;28141;51.120;17.114;2022-08-14T12:09:33;101101.63;;;33.41;36.06
42511;BME280;28141;51.120;17.114;2022-08-14T12:12:37;101098.26;;;33.39;35.47
42511;BME280;28141;51.120;17.114;2022-08-14T12:16:08;101098.21;;;33.44;35.61
42511;BME280;28141;51.120;17.114;2022-08-14T12:19:14;101096.80;;;33.46;35.40
42511;BME280;28141;51.120;17.114;2022-08-14T12:22:19;101092.52;;;33.54;35.52
42511;BME280;28141;51.120;17.114;2022-08-14T12:25:23;101087.73;;;33.59;35.27
42511;BME280;28141;51.120;17.114;2022-08-14T12:28:27;101072.78;;;33.64;35.66
42511;BME280;28141;51.120;17.114;2022-08-14T12:31:31;101071.64;;;33.70;35.30
42511;BME280;28141;51.120;17.114;2022-08-14T12:34:34;101071.90;;;33.74;35.11
42511;BME280;28141;51.120;17.114;2022-08-14T12:37:47;101062.04;;;33.76;35.10
42511;BME280;28141;51.120;17.114;2022-08-14T12:40:52;101062.02;;;33.81;34.82
42511;BME280;28141;51.120;17.114;2022-08-14T12:44:46;101057.18;;;33.87;34.78
42511;BME280;28141;51.120;17.114;2022-08-14T12:47:42;101060.54;;;33.89;34.78
42511;BME280;28141;51.120;17.114;2022-08-14T12:50:46;101060.81;;;33.92;34.58
42511;BME280;28141;51.120;17.114;2022-08-14T12:53:55;101057.34;;;34.00;34.40
42511;BME280;28141;51.120;17.114;2022-08-14T12:57:08;101067.43;;;34.06;34.64
42511;BME280;28141;51.120;17.114;2022-08-14T13:04:04;101068.01;;;34.03;34.71
42511;BME280;28141;51.120;17.114;2022-08-14T13:07:10;101075.31;;;34.04;34.74
42511;BME280;28141;51.120;17.114;2022-08-14T13:10:13;101069.08;;;34.07;34.63
42511;BME280;28141;51.120;17.114;2022-08-14T13:13:18;101073.56;;;34.08;34.63
42511;BME280;28141;51.120;17.114;2022-08-14T13:16:22;101060.06;;;34.11;34.08
42511;BME280;28141;51.120;17.114;2022-08-14T13:19:55;101058.08;;;34.11;34.34
42511;BME280;28141;51.120;17.114;2022-08-14T13:22:59;101044.83;;;34.17;34.52
42511;BME280;28141;51.120;17.114;2022-08-14T13:26:05;101029.65;;;34.18;34.18
42511;BME280;28141;51.120;17.114;2022-08-14T13:29:09;101033.59;;;34.17;34.82
42511;BME280;28141;51.120;17.114;2022-08-14T13:32:14;101028.55;;;34.14;34.12
42511;BME280;28141;51.120;17.114;2022-08-14T13:35:18;101015.63;;;34.13;34.63
42511;BME280;28141;51.120;17.114;2022-08-14T13:38:22;101027.16;;;34.11;34.56
42511;BME280;28141;51.120;17.114;2022-08-14T13:41:27;101029.13;;;34.11;34.41
42511;BME280;28141;51.120;17.114;2022-08-14T13:44:57;101029.72;;;34.07;34.48
42511;BME280;28141;51.120;17.114;2022-08-14T13:48:01;101017.95;;;34.05;34.97
42511;BME280;28141;51.120;17.114;2022-08-14T13:51:06;101019.96;;;34.00;34.58
42511;BME280;28141;51.120;17.114;2022-08-14T13:54:14;101021.93;;;33.99;35.03
42511;BME280;28141;51.120;17.114;2022-08-14T13:57:19;101022.52;;;33.96;34.29
42511;BME280;28141;51.120;17.114;2022-08-14T14:00:24;101018.09;;;33.90;34.71
42511;BME280;28141;51.120;17.114;2022-08-14T14:03:27;101015.58;;;33.89;34.52
42511;BME280;28141;51.120;17.114;2022-08-14T14:07:00;101008.27;;;33.88;34.59
42511;BME280;28141;51.120;17.114;2022-08-14T14:10:07;100997.87;;;33.88;34.76
42511;BME280;28141;51.120;17.114;2022-08-14T14:13:14;100989.99;;;33.90;34.86
42511;BME280;28141;51.120;17.114;2022-08-14T14:16:18;100995.31;;;33.92;34.17
42511;BME280;28141;51.120;17.114;2022-08-14T14:19:22;100985.45;;;33.94;34.28
42511;BME280;28141;51.120;17.114;2022-08-14T14:22:30;100979.84;;;33.94;34.76
42511;BME280;28141;51.120;17.114;2022-08-14T14:25:33;100977.55;;;33.96;34.88
42511;BME280;28141;51.120;17.114;2022-08-14T14:29:05;100978.34;;;34.02;34.51
42511;BME280;28141;51.120;17.114;2022-08-14T14:32:09;100972.69;;;34.07;34.27
42511;BME280;28141;51.120;17.114;2022-08-14T14:35:16;100965.02;;;34.13;34.50
42511;BME280;28141;51.120;17.114;2022-08-14T14:38:25;100959.09;;;34.14;34.44
42511;BME280;28141;51.120;17.114;2022-08-14T14:41:39;100961.31;;;34.17;34.29
42511;BME280;28141;51.120;17.114;2022-08-14T14:44:43;100959.64;;;34.16;34.53
42511;BME280;28141;51.120;17.114;2022-08-14T14:48:23;100952.89;;;34.17;34.23
42511;BME280;28141;51.120;17.114;2022-08-14T14:51:28;100944.66;;;34.21;33.92
42511;BME280;28141;51.120;17.114;2022-08-14T14:54:33;100949.70;;;34.24;34.24
42511;BME280;28141;51.120;17.114;2022-08-14T14:57:39;100944.36;;;34.27;33.75
42511;BME280;28141;51.120;17.114;2022-08-14T15:00:44;100948.84;;;34.28;34.25
42511;BME280;28141;51.120;17.114;2022-08-14T15:03:49;100939.58;;;34.28;34.39
42511;BME280;28141;51.120;17.114;2022-08-14T15:06:56;100945.41;;;34.31;34.30
42511;BME280;28141;51.120;17.114;2022-08-14T15:09:59;100945.71;;;34.30;34.50
42511;BME280;28141;51.120;17.114;2022-08-14T15:13:02;100947.73;;;34.24;34.32
42511;BME280;28141;51.120;17.114;2022-08-14T15:16:35;100957.88;;;34.25;34.13
42511;BME280;28141;51.120;17.114;2022-08-14T15:19:39;100948.86;;;34.23;34.01
42511;BME280;28141;51.120;17.114;2022-08-14T15:22:44;100950.82;;;34.28;34.23
42511;BME280;28141;51.120;17.114;2022-08-14T15:25:48;100944.28;;;34.32;34.05
42511;BME280;28141;51.120;17.114;2022-08-14T15:28:51;100945.66;;;34.35;34.00
42511;BME280;28141;51.120;17.114;2022-08-14T15:31:55;100936.84;;;34.41;34.58
42511;BME280;28141;51.120;17.114;2022-08-14T15:34:58;100936.41;;;34.53;34.05
42511;BME280;28141;51.120;17.114;2022-08-14T15:38:04;100927.83;;;34.63;33.51
42511;BME280;28141;51.120;17.114;2022-08-14T15:41:11;100917.00;;;34.75;33.61
42511;BME280;28141;51.120;17.114;2022-08-14T15:44:15;100917.31;;;34.93;33.98
42511;BME280;28141;51.120;17.114;2022-08-14T15:47:18;100904.96;;;35.07;33.43
42511;BME280;28141;51.120;17.114;2022-08-14T15:50:24;100906.40;;;35.24;32.74
42511;BME280;28141;51.120;17.114;2022-08-14T15:53:30;100912.07;;;35.37;32.60
42511;BME280;28141;51.120;17.114;2022-08-14T15:57:03;100904.73;;;35.55;32.50
42511;BME280;28141;51.120;17.114;2022-08-14T16:00:10;100892.86;;;35.72;32.41
42511;BME280;28141;51.120;17.114;2022-08-14T16:03:26;100889.04;;;35.81;32.16
42511;BME280;28141;51.120;17.114;2022-08-14T16:06:29;100886.76;;;35.97;31.88
42511;BME280;28141;51.120;17.114;2022-08-14T16:09:32;100891.14;;;36.17;31.62
42511;BME280;28141;51.120;17.114;2022-08-14T16:12:37;100890.95;;;36.27;31.39
42511;BME280;28141;51.120;17.114;2022-08-14T16:15:41;100897.42;;;36.41;31.62
42511;BME280;28141;51.120;17.114;2022-08-14T16:18:45;100898.02;;;36.52;31.15
42511;BME280;28141;51.120;17.114;2022-08-14T16:22:15;100903.45;;;36.62;31.08
42511;BME280;28141;51.120;17.114;2022-08-14T16:25:20;100899.46;;;36.77;30.94
42511;BME280;28141;51.120;17.114;2022-08-14T16:28:24;100903.73;;;36.88;30.23
42511;BME280;28141;51.120;17.114;2022-08-14T16:31:28;100895.42;;;36.91;30.85
42511;BME280;28141;51.120;17.114;2022-08-14T16:34:31;100898.25;;;36.91;30.87